Time;durP1;ratioP1;P1;durP2;ratioP2;P2;SDS_P1;SDS_P2;PMS_P1;PMS_P2;Temp;Humidity;BMP_temperature;BMP_pressure;BME280_temperature;BME280_humidity;BME280_pressure;Samples;Min_cycle;Max_cycle;Signal;HPM_P1;HPM_P2
2023/07/10 00:00:49;;;;;;;31.15;15.10;;;;;;;22.83;100.00;99149.09;4954786;29;20051;-92
2023/07/10 00:03:20;;;;;;;34.60;15.38;;;;;;;22.85;100.00;99179.69;4956341;29;20441;-91
2023/07/10 00:05:46;;;;;;;28.30;15.15;;;;;;;22.72;100.00;99167.00;4955977;29;20531;-92
2023/07/10 00:08:15;;;;;;;31.17;15.13;;;;;;;22.70;100.00;99177.06;4955854;29;20043;-92
2023/07/10 00:10:41;;;;;;;29.70;14.88;;;;;;;22.69;100.00;99178.06;4955904;29;20042;-92
2023/07/10 00:13:13;;;;;;;;;;;;;;;22.69;100.00;99196.19;4956692;29;20043;-93
2023/07/10 00:15:43;;;;;;;28.27;15.30;;;;;;;22.54;100.00;99184.56;4955382;29;19923;-92
2023/07/10 00:18:14;;;;;;;30.38;14.98;;;;;;;22.39;100.00;99162.09;4955809;29;20055;-92
2023/07/10 00:20:45;;;;;;;34.05;16.27;;;;;;;22.45;100.00;99183.38;4955318;29;20051;-92
2023/07/10 00:23:13;;;;;;;30.35;16.33;;;;;;;22.30;100.00;99174.44;4955821;29;20051;-92
2023/07/10 00:25:39;;;;;;;31.58;16.27;;;;;;;22.28;100.00;99165.56;4955909;29;20047;-92
2023/07/10 00:28:16;;;;;;;33.25;15.27;;;;;;;22.39;100.00;99194.63;4955726;29;20397;-92
2023/07/10 00:30:51;;;;;;;31.33;15.35;;;;;;;22.26;100.00;99166.63;4954828;29;20062;-93
2023/07/10 00:33:19;;;;;;;28.77;14.90;;;;;;;22.35;100.00;99195.81;4955466;29;20670;-91
2023/07/10 00:35:46;;;;;;;27.38;15.45;;;;;;;22.26;100.00;99183.75;4955854;29;20090;-92
2023/07/10 00:38:18;;;;;;;27.42;14.90;;;;;;;22.19;100.00;99184.25;4951887;29;20043;-92
2023/07/10 00:40:46;;;;;;;30.80;15.88;;;;;;;22.21;100.00;99185.03;4955722;29;20515;-92
2023/07/10 00:43:30;;;;;;;34.60;16.15;;;;;;;22.20;100.00;99210.38;4958134;28;20055;-93
2023/07/10 00:46:11;;;;;;;27.98;15.05;;;;;;;22.21;100.00;99201.28;4958504;29;20035;-92
2023/07/10 00:48:45;;;;;;;31.45;15.18;;;;;;;22.22;100.00;99219.25;4957396;29;20126;-93
2023/07/10 00:51:19;;;;;;;28.67;14.80;;;;;;;22.20;100.00;99208.53;4958899;29;20043;-91
2023/07/10 00:53:47;;;;;;;27.38;15.50;;;;;;;22.11;100.00;99195.59;4959158;29;20409;-92
2023/07/10 00:56:19;;;;;;;29.08;14.30;;;;;;;22.10;100.00;99202.88;4959537;29;20048;-93
2023/07/10 00:58:48;;;;;;;;;;;;;;;22.11;100.00;99209.16;4959439;29;20049;-92
2023/07/10 01:01:25;;;;;;;28.90;15.02;;;;;;;22.03;100.00;99196.09;4958644;29;19918;-93
2023/07/10 01:03:52;;;;;;;29.90;15.27;;;;;;;22.10;100.00;99210.13;4959497;29;20500;-92
2023/07/10 01:06:22;;;;;;;31.65;15.07;;;;;;;22.08;100.00;99206.66;4958067;29;20042;-91
2023/07/10 01:08:52;;;;;;;27.83;15.65;;;;;;;22.01;100.00;99197.19;4958297;29;20039;-91
2023/07/10 01:11:19;;;;;;;28.77;15.13;;;;;;;21.99;100.00;99199.13;4958625;29;20067;-92
2023/07/10 01:13:52;;;;;;;28.48;14.27;;;;;;;21.90;100.00;99179.84;4957968;29;20046;-92
2023/07/10 01:16:20;;;;;;;31.35;15.63;;;;;;;21.89;100.00;99175.38;4957514;29;20054;-93
2023/07/10 01:18:46;;;;;;;;;;;;;;;22.10;100.00;99196.59;4959339;29;20062;-91
2023/07/10 01:21:26;;;;;;;25.42;14.38;;;;;;;21.94;100.00;99183.19;4958096;29;19927;-91
2023/07/10 01:23:55;;;;;;;29.95;14.77;;;;;;;21.90;100.00;99177.16;4958990;29;20043;-92
2023/07/10 01:26:22;;;;;;;30.08;14.93;;;;;;;21.92;100.00;99186.03;4954879;29;20541;-91
2023/07/10 01:28:55;;;;;;;28.92;15.00;;;;;;;21.96;100.00;99189.38;4959040;29;20040;-92
2023/07/10 01:31:24;;;;;;;27.90;13.52;;;;;;;21.96;100.00;99192.09;4957148;29;20043;-93
2023/07/10 01:33:55;;;;;;;27.38;13.73;;;;;;;21.86;100.00;99180.13;4955117;29;20556;-91
2023/07/10 01:36:28;;;;;;;23.90;13.65;;;;;;;21.97;100.00;99193.84;4958456;29;20070;-92
2023/07/10 01:39:16;;;;;;;29.73;14.68;;;;;;;21.84;100.00;99171.25;4958503;29;20409;-91
2023/07/10 01:41:43;;;;;;;26.90;13.65;;;;;;;21.81;100.00;99157.94;4957813;29;20070;-91
2023/07/10 01:44:21;;;;;;;28.45;15.02;;;;;;;21.90;100.00;99177.16;4958112;29;20055;-91
2023/07/10 01:46:49;;;;;;;27.65;14.35;;;;;;;21.92;100.00;99187.84;4957451;29;20560;-92
2023/07/10 01:49:17;;;;;;;28.80;14.23;;;;;;;21.78;100.00;99172.53;4958051;29;20051;-90
2023/07/10 01:51:49;;;;;;;26.63;13.68;;;;;;;21.72;100.00;99164.81;4956804;29;20043;-92
2023/07/10 01:54:16;;;;;;;25.48;14.50;;;;;;;21.72;100.00;99172.94;4958264;28;20071;-91
2023/07/10 01:56:45;;;;;;;26.63;14.32;;;;;;;21.83;100.00;99185.75;4957947;29;20059;-92
2023/07/10 01:59:11;;;;;;;29.15;14.25;;;;;;;21.87;100.00;99192.72;4956718;29;20039;-91
2023/07/10 02:01:39;;;;;;;25.25;13.63;;;;;;;21.76;100.00;99168.22;4957153;29;20047;-91
2023/07/10 02:04:09;;;;;;;30.30;14.73;;;;;;;21.85;100.00;99190.09;4956565;29;20054;-91
2023/07/10 02:06:40;;;;;;;29.80;15.50;;;;;;;21.72;100.00;99172.94;4956647;29;20050;-92
2023/07/10 02:09:08;;;;;;;29.83;15.18;;;;;;;21.80;100.00;99194.09;4957018;29;20489;-90
2023/07/10 02:11:35;;;;;;;27.08;14.18;;;;;;;21.79;100.00;99193.22;4956733;29;20039;-93
2023/07/10 02:14:02;;;;;;;30.65;14.25;;;;;;;21.65;100.00;99169.78;4957769;29;20043;-92
2023/07/10 02:16:28;;;;;;;30.90;14.85;;;;;;;21.67;100.00;99175.09;4957491;29;20449;-91
2023/07/10 02:18:56;;;;;;;30.30;14.70;;;;;;;21.69;100.00;99189.41;4957556;29;20039;-90
2023/07/10 02:21:22;;;;;;;31.88;15.50;;;;;;;21.57;100.00;99165.84;4957724;29;20512;-92
2023/07/10 02:23:51;;;;;;;31.20;15.13;;;;;;;21.58;100.00;99173.88;4957460;29;20102;-92
2023/07/10 02:26:28;;;;;;;36.25;15.50;;;;;;;21.59;100.00;99180.16;4957408;29;20075;-92
2023/07/10 02:28:54;;;;;;;29.27;15.82;;;;;;;21.56;100.00;99175.81;4957110;29;20047;-91
2023/07/10 02:31:23;;;;;;;25.98;14.55;;;;;;;21.62;100.00;99169.09;4956894;29;20043;-92
2023/07/10 02:33:52;;;;;;;26.52;13.63;;;;;;;21.58;100.00;99163.03;4957930;29;20043;-92
2023/07/10 02:36:22;;;;;;;27.67;14.80;;;;;;;21.65;100.00;99169.78;4956970;29;20046;-92
2023/07/10 02:38:51;;;;;;;28.70;15.23;;;;;;;21.71;100.00;99192.88;4957448;29;20497;-92
2023/07/10 02:41:17;;;;;;;30.63;15.02;;;;;;;21.58;100.00;99178.38;4957335;29;20043;-92
2023/07/10 02:43:48;;;;;;;26.92;14.77;;;;;;;21.64;100.00;99191.53;4957197;28;20448;-91
2023/07/10 02:46:17;;;;;;;28.83;14.52;;;;;;;21.49;100.00;99175.34;4956539;29;20133;-92
2023/07/10 02:48:43;;;;;;;28.73;14.98;;;;;;;21.55;100.00;99193.00;4957119;29;20126;-92
2023/07/10 02:51:11;;;;;;;30.40;14.73;;;;;;;21.56;100.00;99202.88;4956647;29;20119;-91
2023/07/10 02:53:37;;;;;;;34.08;15.63;;;;;;;21.59;100.00;99210.78;4956920;29;20047;-91
2023/07/10 02:56:08;;;;;;;;;;;;;;;21.58;100.00;99209.06;4956856;29;20050;-93
2023/07/10 02:58:34;;;;;;;;;;;;;;;21.52;100.00;99217.56;4956376;29;19922;-94
2023/07/10 03:01:05;;;;;;;30.35;16.23;;;;;;;21.42;100.00;99203.75;4956802;29;19926;-92
2023/07/10 03:03:31;;;;;;;33.90;16.13;;;;;;;21.28;100.00;99179.41;4956882;29;20134;-92
2023/07/10 03:05:59;;;;;;;30.88;15.60;;;;;;;21.34;100.00;99211.47;4956160;28;20043;-92
2023/07/10 03:08:28;;;;;;;31.02;15.80;;;;;;;21.19;100.00;99189.00;4956908;29;20488;-92
2023/07/10 03:11:03;;;;;;;36.28;15.80;;;;;;;21.26;100.00;99200.28;4956309;29;20047;-91
2023/07/10 03:13:36;;;;;;;33.03;16.52;;;;;;;21.18;100.00;99189.06;4956392;29;20047;-91
2023/07/10 03:16:06;;;;;;;35.65;16.95;;;;;;;21.17;100.00;99206.28;4955398;29;20496;-93
2023/07/10 03:18:32;;;;;;;36.28;17.58;;;;;;;21.07;100.00;99203.28;4956834;29;20066;-92
2023/07/10 03:20:58;;;;;;;31.83;16.35;;;;;;;21.12;100.00;99218.25;4956979;29;20046;-92
2023/07/10 03:23:24;;;;;;;35.38;18.33;;;;;;;21.04;100.00;99207.06;4956571;29;20039;-92
2023/07/10 03:25:50;;;;;;;35.30;17.20;;;;;;;21.04;100.00;99203.50;4957144;29;20505;-92
2023/07/10 03:28:22;;;;;;;33.33;17.90;;;;;;;21.05;100.00;99211.47;4956678;29;20400;-92
2023/07/10 03:30:50;;;;;;;36.78;18.70;;;;;;;20.99;100.00;99200.19;4956272;28;20075;-92
2023/07/10 03:33:21;;;;;;;35.67;18.65;;;;;;;20.85;100.00;99201.06;4957172;29;20359;-92
2023/07/10 03:35:48;;;;;;;37.80;18.65;;;;;;;20.90;100.00;99207.91;4956916;29;20409;-92
2023/07/10 03:38:17;;;;;;;34.53;17.88;;;;;;;20.97;100.00;99219.22;4956826;29;20031;-92
2023/07/10 03:40:52;;;;;;;42.30;17.52;;;;;;;21.03;100.00;99235.03;4956882;29;20220;-92
2023/07/10 03:43:18;;;;;;;31.20;15.68;;;;;;;20.99;100.00;99216.41;4955921;29;20043;-92
2023/07/10 03:45:46;;;;;;;35.50;17.23;;;;;;;20.80;100.00;99201.34;4955188;29;20130;-92
2023/07/10 03:48:16;;;;;;;28.85;16.90;;;;;;;20.92;100.00;99221.34;4955574;29;20047;-92
2023/07/10 03:50:44;;;;;;;29.85;17.05;;;;;;;20.80;100.00;99206.75;4956323;29;20513;-92
2023/07/10 03:53:13;;;;;;;32.40;16.67;;;;;;;20.92;100.00;99237.56;4956647;29;20106;-93
2023/07/10 03:55:52;;;;;;;36.33;17.63;;;;;;;20.90;100.00;99217.84;4956506;29;20071;-91
2023/07/10 03:58:26;;;;;;;34.53;16.60;;;;;;;20.96;100.00;99217.47;4953812;29;20050;-93
2023/07/10 04:00:52;;;;;;;32.53;16.77;;;;;;;20.95;100.00;99213.03;4950436;29;20054;-91
2023/07/10 04:03:20;;;;;;;35.38;17.70;;;;;;;20.95;100.00;99207.63;4956711;29;20051;-91
2023/07/10 04:05:58;;;;;;;41.20;17.52;;;;;;;21.09;100.00;99234.66;4956412;29;20047;-93
2023/07/10 04:08:27;;;;;;;29.00;16.30;;;;;;;20.96;100.00;99212.06;4955907;29;20094;-93
2023/07/10 04:11:06;;;;;;;32.92;16.10;;;;;;;21.09;100.00;99225.69;4956376;29;20445;-91
2023/07/10 04:13:39;;;;;;;29.50;15.38;;;;;;;21.13;100.00;99236.22;4956081;29;20445;-92
2023/07/10 04:16:09;;;;;;;29.35;15.35;;;;;;;21.06;100.00;99215.06;4955081;28;20078;-92
2023/07/10 04:18:37;;;;;;;28.98;16.13;;;;;;;21.18;100.00;99218.81;4955239;29;20043;-93
2023/07/10 04:21:15;;;;;;;32.38;15.88;;;;;;;21.23;100.00;99236.50;4955439;28;20501;-91
2023/07/10 04:23:44;;;;;;;32.60;18.05;;;;;;;21.10;100.00;99209.38;4955741;29;20102;-91
2023/07/10 04:26:21;;;;;;;30.10;16.38;;;;;;;21.24;100.00;99215.72;4955941;29;20051;-92
2023/07/10 04:28:49;;;;;;;32.70;16.35;;;;;;;21.29;100.00;99216.31;4955649;28;20047;-92
2023/07/10 04:31:22;;;;;;;30.05;16.65;;;;;;;21.28;100.00;99211.88;4955527;29;20110;-92
2023/07/10 04:33:50;;;;;;;28.70;15.95;;;;;;;21.27;100.00;99210.97;4956209;29;20135;-92
2023/07/10 04:36:35;;;;;;;31.63;15.90;;;;;;;21.50;100.00;99244.72;4955537;29;20040;-92
2023/07/10 04:39:02;;;;;;;34.65;16.63;;;;;;;21.36;100.00;99220.38;4948187;28;20130;-91
2023/07/10 04:41:28;;;;;;;33.13;17.95;;;;;;;21.57;100.00;99238.91;4955935;29;20042;-92
2023/07/10 04:43:59;;;;;;;42.50;20.70;;;;;;;21.61;100.00;99238.59;4955783;29;20204;-91
2023/07/10 04:46:37;;;;;;;40.60;20.77;;;;;;;21.60;100.00;99225.16;4955481;29;20432;-92
2023/07/10 04:49:03;;;;;;;28.27;15.32;;;;;;;21.81;100.00;99237.28;4955999;29;20039;-92
2023/07/10 04:51:29;;;;;;;30.38;16.77;;;;;;;21.73;100.00;99234.25;4955584;28;20047;-91
2023/07/10 04:54:07;;;;;;;29.80;14.57;;;;;;;21.75;100.00;99229.56;4955981;29;20106;-91
2023/07/10 04:56:33;;;;;;;32.45;14.40;;;;;;;21.77;100.00;99245.72;4956449;29;20051;-92
2023/07/10 04:59:01;;;;;;;27.13;14.27;;;;;;;21.73;100.00;99254.06;4955611;29;20090;-92
2023/07/10 05:01:33;;;;;;;29.80;15.00;;;;;;;21.67;100.00;99251.75;4953840;29;20382;-93
2023/07/10 05:04:00;;;;;;;27.65;16.05;;;;;;;21.63;100.00;99244.78;4954981;28;20086;-91
2023/07/10 05:06:29;;;;;;;34.58;16.08;;;;;;;22.00;100.00;99261.31;4955562;29;20045;-92
2023/07/10 05:09:00;;;;;;;24.75;14.40;;;;;;;22.32;100.00;99245.66;4939559;29;20044;-92
2023/07/10 05:11:28;;;;;;;27.85;14.90;;;;;;;22.85;100.00;99234.78;4948455;29;20139;-92
2023/07/10 05:14:03;;;;;;;24.65;14.57;;;;;;;23.32;100.00;99244.13;4956459;29;20067;-92
2023/07/10 05:16:39;;;;;;;28.42;14.23;;;;;;;23.74;100.00;99232.94;4955758;29;20047;-94
2023/07/10 05:19:11;;;;;;;21.27;12.80;;;;;;;24.13;100.00;99234.56;4955863;29;20393;-92
2023/07/10 05:21:37;;;;;;;34.55;15.90;;;;;;;24.23;100.00;99239.31;4955513;28;20047;-92
2023/07/10 05:24:05;;;;;;;23.48;13.00;;;;;;;24.44;100.00;99247.66;4955920;28;20039;-91
2023/07/10 05:26:31;;;;;;;21.95;12.75;;;;;;;24.91;100.00;99245.84;4955553;29;20509;-92
2023/07/10 05:28:57;;;;;;;24.73;13.40;;;;;;;25.01;100.00;99244.16;4957119;28;20042;-92
2023/07/10 05:31:23;;;;;;;19.77;12.70;;;;;;;25.42;100.00;99251.75;4958963;29;20066;-92
2023/07/10 05:33:52;;;;;;;24.65;13.60;;;;;;;25.01;100.00;99260.47;4958699;29;20131;-93
2023/07/10 05:36:19;;;;;;;22.65;12.48;;;;;;;24.90;100.00;99265.91;4959659;28;20047;-93
2023/07/10 05:38:50;;;;;;;25.10;12.77;;;;;;;24.97;100.00;99248.09;4959573;29;20043;-92
2023/07/10 05:41:18;;;;;;;25.48;13.15;;;;;;;24.34;100.00;99247.50;4958922;29;20047;-91
2023/07/10 05:43:45;;;;;;;24.88;14.02;;;;;;;24.47;100.00;99236.56;4958743;29;20044;-92
2023/07/10 05:46:11;;;;;;;23.40;12.90;;;;;;;24.51;100.00;99260.72;4959035;29;20051;-92
2023/07/10 05:48:38;;;;;;;25.90;13.57;;;;;;;24.35;100.00;99241.97;4958907;28;20053;-90
2023/07/10 05:51:14;;;;;;;22.35;13.18;;;;;;;24.26;100.00;99239.94;4957910;29;20062;-94
2023/07/10 05:53:40;;;;;;;22.17;13.10;;;;;;;24.06;100.00;99236.00;4958541;29;20051;-94
2023/07/10 05:56:06;;;;;;;23.98;12.70;;;;;;;24.27;100.00;99224.50;4959542;29;20066;-92
2023/07/10 05:58:37;;;;;;;25.20;13.18;;;;;;;24.07;100.00;99234.16;4958976;29;20047;-93
2023/07/10 06:01:06;;;;;;;22.27;13.25;;;;;;;24.35;100.00;99241.06;4958890;29;20049;-92
2023/07/10 06:03:33;;;;;;;25.23;13.00;;;;;;;24.50;100.00;99236.34;4959385;29;20386;-93
2023/07/10 06:06:01;;;;;;;21.55;13.18;;;;;;;24.85;100.00;99240.88;4960709;29;20043;-93
2023/07/10 06:08:29;;;;;;;21.00;12.80;;;;;;;24.87;100.00;99226.19;4958519;29;20040;-93
2023/07/10 06:10:55;;;;;;;25.63;12.97;;;;;;;24.96;100.00;99241.81;4959138;28;20046;-93
2023/07/10 06:13:22;;;;;;;22.45;12.90;;;;;;;24.92;100.00;99225.84;4958554;29;20356;-93
2023/07/10 06:15:51;;;;;;;24.73;13.50;;;;;;;24.71;100.00;99234.69;4958788;29;20066;-93
2023/07/10 06:18:18;;;;;;;22.05;13.18;;;;;;;24.80;100.00;99233.97;4958636;29;20047;-94
2023/07/10 06:20:49;;;;;;;25.13;13.35;;;;;;;24.82;100.00;99232.97;4958130;29;20043;-92
2023/07/10 06:23:15;;;;;;;31.33;13.98;;;;;;;25.35;100.00;99227.84;4957887;29;20497;-93
2023/07/10 06:25:44;;;;;;;22.48;12.27;;;;;;;25.52;100.00;99213.72;4958306;29;20051;-94
2023/07/10 06:28:16;;;;;;;21.67;12.13;;;;;;;25.77;100.00;99218.03;4957441;29;20043;-93
2023/07/10 06:30:52;;;;;;;25.50;12.18;;;;;;;25.85;100.00;99225.59;4956705;29;20111;-93
2023/07/10 06:33:21;;;;;;;24.38;12.32;;;;;;;26.08;100.00;99236.44;4954847;29;20054;-92
2023/07/10 06:35:47;;;;;;;23.67;12.68;;;;;;;25.49;100.00;99241.22;4956308;29;20046;-94
2023/07/10 06:38:13;;;;;;;21.60;12.18;;;;;;;25.95;100.00;99222.97;4957448;29;20126;-94
2023/07/10 06:40:39;;;;;;;23.92;12.75;;;;;;;25.87;100.00;99226.28;4958385;28;20447;-94
2023/07/10 06:43:05;;;;;;;18.92;12.10;;;;;;;26.24;100.00;99234.16;4957810;28;20126;-92
2023/07/10 06:45:30;;;;;;;22.70;12.60;;;;;;;26.48;100.00;99238.50;4958023;29;20129;-93
2023/07/10 06:47:56;;;;;;;24.17;12.45;;;;;;;26.34;100.00;99232.38;4958346;28;20509;-95
2023/07/10 06:50:26;;;;;;;24.83;12.63;;;;;;;26.13;100.00;99240.53;4960124;28;20055;-93
2023/07/10 06:52:57;;;;;;;22.83;13.07;;;;;;;26.26;100.00;99236.75;4958217;29;20114;-96
2023/07/10 06:55:26;;;;;;;26.05;12.32;;;;;;;26.44;100.00;99241.50;4958519;29;20102;-94
2023/07/10 06:58:03;;;;;;;25.52;12.40;;;;;;;26.78;100.00;99224.09;4959136;28;20047;-95
2023/07/10 07:00:29;;;;;;;19.73;12.27;;;;;;;27.03;100.00;99220.97;4957760;28;20513;-93
2023/07/10 07:03:29;;;;;;;;;;;;;;;;;;;;;
2023/07/10 07:30:09;;;;;;;25.80;12.43;;;;;;;27.27;96.79;99221.69;4752478;30;20640;-95
2023/07/10 07:33:20;;;;;;;;;;;;;;;;;;;;;
2023/07/10 07:36:51;;;;;;;18.13;11.73;;;;;;;27.35;93.99;99217.28;4653603;30;20051;-93
2023/07/10 07:42:54;;;;;;;19.00;11.70;;;;;;;28.12;90.68;99213.03;4631694;30;20456;-93
2023/07/10 08:16:05;;;;;;;17.02;10.85;;;;;;;30.04;78.60;99218.31;5649262;22;15289023;-93
2023/07/10 08:18:20;;;;;;;17.63;10.60;;;;;;;30.32;80.21;99213.66;6087339;23;20030;-95
2023/07/10 08:21:25;;;;;;;18.73;11.20;;;;;;;30.71;79.11;99205.91;6105636;23;20066;-93
2023/07/10 08:34:42;;;;;;;19.90;11.57;;;;;;;30.64;78.80;99206.72;5854212;24;20078;-94
2023/07/10 08:37:36;;;;;;;16.73;11.10;;;;;;;31.03;79.20;99217.31;5816506;24;20358;-95
2023/07/10 08:40:32;;;;;;;16.52;10.85;;;;;;;31.50;77.04;99225.19;5793248;24;20029;-95
2023/07/10 08:43:04;;;;;;;19.65;10.10;;;;;;;31.64;75.16;99198.94;5831513;24;20018;-95
2023/07/10 08:45:39;;;;;;;15.20;10.82;;;;;;;31.88;74.42;99199.03;5790744;24;20011;-93
2023/07/10 08:51:32;;;;;;;19.00;11.07;;;;;;;31.24;75.68;99198.56;5804062;24;20010;-93
2023/07/10 08:57:53;;;;;;;18.15;10.63;;;;;;;31.85;74.52;99195.75;5906841;24;20165;-94
2023/07/10 09:00:45;;;;;;;20.48;11.73;;;;;;;31.26;76.58;99193.75;5924439;23;20106;-92
2023/07/10 09:03:34;;;;;;;18.85;10.85;;;;;;;31.55;78.34;99210.94;6039625;23;20403;-92
2023/07/10 09:06:51;;;;;;;18.73;10.95;;;;;;;31.57;76.41;99197.88;6149089;23;20017;-92
2023/07/10 09:10:31;;;;;;;;;;;;;;;;;;;;;
2023/07/10 09:13:57;;;;;;;17.20;11.05;;;;;;;32.63;70.55;99205.53;6187289;23;20029;-96
2023/07/10 09:17:10;;;;;;;17.10;11.05;;;;;;;32.55;73.77;99184.38;6310775;22;20456;-93
2023/07/10 09:28:28;;;;;;;15.70;10.73;;;;;;;32.53;60.03;99190.06;6130063;23;20495;-94
2023/07/10 09:31:40;;;;;;;19.35;11.02;;;;;;;32.82;60.60;99210.69;6092256;23;20037;-93
2023/07/10 09:38:18;;;;;;;15.60;10.25;;;;;;;33.16;55.47;99198.63;6058084;23;20018;-94
2023/07/10 09:44:55;;;;;;;17.92;10.57;;;;;;;33.25;52.34;99199.47;5982187;24;20058;-95
2023/07/10 09:52:27;;;;;;;;;;;;;;;;;;;;;
2023/07/10 09:55:28;;;;;;;16.98;10.68;;;;;;;32.84;52.14;99183.00;5956257;24;20029;-95
2023/07/10 09:58:14;;;;;;;15.15;9.82;;;;;;;32.77;51.43;99184.69;5954879;24;20017;-93
2023/07/10 10:01:18;;;;;;;18.10;10.35;;;;;;;32.95;52.75;99196.38;5955667;24;20077;-92
2023/07/10 10:12:03;;;;;;;14.85;9.40;;;;;;;32.38;49.67;99183.50;5983865;23;20025;-95
2023/07/10 10:14:40;;;;;;;17.10;9.20;;;;;;;32.37;50.06;99191.91;5984063;23;20031;-93
2023/07/10 10:21:09;;;;;;;15.93;10.35;;;;;;;33.15;49.94;99161.06;6044478;23;20109;-93
2023/07/10 10:24:38;;;;;;;;;;;;;;;;;;;;;
2023/07/10 10:27:54;;;;;;;14.82;9.68;;;;;;;33.51;48.29;99171.63;6039146;23;20398;-95
2023/07/10 10:31:03;;;;;;;17.20;9.90;;;;;;;33.07;46.92;99155.56;6017115;23;20414;-93
2023/07/10 10:34:13;;;;;;;13.20;9.38;;;;;;;33.53;49.03;99148.34;5933204;23;20029;-94
2023/07/10 10:38:08;;;;;;;13.73;9.13;;;;;;;33.64;44.68;99143.50;5843135;24;20450;-93
2023/07/10 10:41:32;;;;;;;15.65;9.07;;;;;;;34.07;43.66;99154.94;5792480;24;20045;-94
2023/07/10 10:47:54;;;;;;;14.43;8.27;;;;;;;34.17;41.87;99134.34;5833145;24;20021;-94
2023/07/10 10:50:46;;;;;;;12.50;9.00;;;;;;;34.43;41.32;99146.91;5882876;24;20397;-94
2023/07/10 10:53:54;;;;;;;12.13;8.50;;;;;;;34.48;41.22;99144.47;5825794;24;20472;-94
2023/07/10 10:56:49;;;;;;;13.85;8.00;;;;;;;34.49;40.55;99137.88;5834917;24;20018;-94
2023/07/10 10:59:54;;;;;;;13.65;8.52;;;;;;;34.50;40.42;99122.16;5873352;24;20029;-94
2023/07/10 11:03:25;;;;;;;10.38;7.90;;;;;;;34.57;42.39;99123.16;5876399;24;20025;-93
2023/07/10 11:06:48;;;;;;;17.88;8.18;;;;;;;34.58;40.94;99120.19;5927836;24;20025;-93
2023/07/10 11:10:13;;;;;;;;;;;;;;;;;;;;;
2023/07/10 11:27:38;;;;;;;13.10;8.02;;;;;;;34.75;37.94;99104.34;6082349;23;20041;-93
2023/07/10 11:30:13;;;;;;;16.35;8.50;;;;;;;34.85;38.68;99087.50;6010343;23;20021;-92
2023/07/10 11:46:47;;;;;;;15.43;6.60;;;;;;;34.94;35.19;99077.22;5278586;22;21002778;-93
2023/07/10 11:49:58;;;;;;;13.70;5.88;;;;;;;34.93;35.59;99078.25;6161058;23;20018;-93
2023/07/10 11:52:31;;;;;;;10.25;6.10;;;;;;;35.09;35.87;99069.75;6160846;23;20022;-91
2023/07/10 11:55:06;;;;;;;16.45;6.47;;;;;;;35.17;34.97;99091.78;6160067;23;20028;-95
2023/07/10 11:57:36;;;;;;;13.45;7.88;;;;;;;34.50;36.63;99076.06;6159842;23;20025;-94
2023/07/10 12:00:26;;;;;;;13.40;7.35;;;;;;;34.54;37.45;99066.38;6159713;23;20002;-93
2023/07/10 12:02:59;;;;;;;10.02;7.22;;;;;;;34.38;37.91;99069.31;6160392;22;20359;-93
2023/07/10 12:05:35;;;;;;;12.85;7.57;;;;;;;34.56;37.37;99064.28;6159759;23;20017;-94
2023/07/10 12:08:18;;;;;;;11.35;7.10;;;;;;;34.75;36.04;99060.13;6160143;23;20022;-94
2023/07/10 12:10:46;;;;;;;18.10;7.60;;;;;;;34.94;35.84;99064.25;6161240;23;20067;-94
2023/07/10 12:17:03;;;;;;;;;;;;;;;;;;;;;
2023/07/10 12:20:38;;;;;;;12.43;6.18;;;;;;;35.36;35.75;99059.06;6255717;23;20027;-94
2023/07/10 12:23:24;;;;;;;8.18;6.10;;;;;;;35.41;35.49;99055.72;6228133;23;20023;-94
2023/07/10 12:30:11;;;;;;;15.55;6.28;;;;;;;35.34;36.27;99059.25;6206822;23;20011;-94
2023/07/10 12:33:02;;;;;;;10.82;5.75;;;;;;;35.34;35.45;99036.28;6111144;23;20017;-95
2023/07/10 12:35:42;;;;;;;11.73;5.85;;;;;;;35.47;35.33;99044.72;6109775;23;20444;-93
2023/07/10 12:42:06;;;;;;;15.18;6.57;;;;;;;35.55;34.87;99039.06;5990948;24;20030;-92
2023/07/10 12:45:17;;;;;;;11.15;6.10;;;;;;;35.45;33.88;99044.06;5991183;24;20415;-95
2023/07/10 12:47:50;;;;;;;14.38;7.00;;;;;;;35.29;35.62;99045.16;5961193;24;20035;-92
2023/07/10 12:50:39;;;;;;;12.10;6.93;;;;;;;35.56;36.46;99039.94;5985649;24;20020;-94
2023/07/10 12:53:17;;;;;;;11.48;7.20;;;;;;;35.07;36.23;99035.03;5989997;23;20051;-94
2023/07/10 12:56:16;;;;;;;12.38;6.93;;;;;;;34.87;38.53;99040.31;6028067;23;20344;-92
2023/07/10 12:59:08;;;;;;;17.48;6.88;;;;;;;34.74;38.65;99029.94;6163065;23;20021;-94
2023/07/10 13:01:54;;;;;;;10.77;5.90;;;;;;;34.70;38.45;99035.00;6163367;23;20017;-94
2023/07/10 13:04:22;;;;;;;10.93;6.18;;;;;;;34.95;35.77;99043.84;6164664;23;20021;-91
2023/07/10 13:07:40;;;;;;;9.23;5.55;;;;;;;34.69;35.90;99049.84;6162791;23;20020;-94
2023/07/10 13:10:48;;;;;;;7.95;5.07;;;;;;;34.75;35.35;99043.56;6161683;23;20123;-95
2023/07/10 13:13:44;;;;;;;;;;;;;;;;;;;;;
2023/07/10 13:16:26;;;;;;;12.68;4.65;;;;;;;34.91;33.92;99033.38;6155855;23;20052;-95
2023/07/10 13:19:03;;;;;;;9.65;4.65;;;;;;;34.82;34.77;99032.59;6155482;23;20075;-95
2023/07/10 13:21:55;;;;;;;;;;;;;;;;;;;;;
2023/07/10 13:24:39;;;;;;;9.25;4.35;;;;;;;35.17;36.04;99025.44;6153175;23;20045;-93
2023/07/10 13:27:24;;;;;;;14.00;4.65;;;;;;;35.46;32.25;99031.97;6153634;23;20439;-93
2023/07/10 13:29:57;;;;;;;11.82;4.38;;;;;;;35.46;31.28;99017.25;6153637;23;20022;-94
2023/07/10 13:32:34;;;;;;;10.30;4.32;;;;;;;35.49;32.80;99039.00;6153115;23;20026;-94
2023/07/10 13:35:19;;;;;;;9.98;4.30;;;;;;;35.41;32.12;99017.00;6153176;23;20115;-93
2023/07/10 13:37:55;;;;;;;;;;;;;;;35.50;32.49;99037.94;6154154;23;20406;-94
2023/07/10 13:40:46;;;;;;;14.35;4.63;;;;;;;35.49;32.35;99025.19;6153228;22;19995;-94
2023/07/10 13:43:43;;;;;;;;;;;;;;;;;;;;;
2023/07/10 13:46:24;;;;;;;8.70;4.60;;;;;;;35.48;33.33;99027.09;6154102;23;20075;-92
2023/07/10 13:49:29;;;;;;;11.00;4.57;;;;;;;35.12;33.14;99010.47;6153878;23;20014;-94
2023/07/10 13:52:05;;;;;;;9.35;4.85;;;;;;;35.14;33.65;99000.09;6039031;23;20031;-93
2023/07/10 13:57:28;;;;;;;11.68;4.65;;;;;;;35.22;33.38;98999.13;6016624;23;20023;-93
2023/07/10 13:59:58;;;;;;;8.88;4.50;;;;;;;35.20;33.07;98985.50;6040870;23;20023;-94
2023/07/10 14:02:30;;;;;;;11.27;4.90;;;;;;;35.30;33.56;98996.25;6042092;23;20030;-93
2023/07/10 14:05:12;;;;;;;11.80;5.30;;;;;;;35.40;33.63;98990.41;6043211;23;20041;-93
2023/07/10 14:07:40;;;;;;;13.10;5.80;;;;;;;35.44;34.46;98998.13;6039743;23;20019;-93
2023/07/10 14:10:12;;;;;;;9.80;5.35;;;;;;;34.74;33.89;99002.31;6042274;23;20027;-93
2023/07/10 14:12:41;;;;;;;9.57;5.20;;;;;;;34.94;35.05;98992.41;6041149;23;20019;-94
2023/07/10 14:15:08;;;;;;;8.77;4.85;;;;;;;34.76;36.32;98990.03;6041658;23;20046;-94
2023/07/10 14:17:35;;;;;;;8.48;4.95;;;;;;;35.11;36.78;98979.22;6041088;23;20481;-93
2023/07/10 14:20:04;;;;;;;13.05;5.47;;;;;;;34.98;36.22;98999.25;6110411;23;20021;-94
2023/07/10 14:22:32;;;;;;;12.40;5.22;;;;;;;35.07;36.80;98990.81;6155158;22;20021;-93
2023/07/10 14:24:58;;;;;;;10.07;5.28;;;;;;;35.13;34.65;98982.69;6153272;23;20041;-94
2023/07/10 14:27:28;;;;;;;10.75;4.97;;;;;;;35.43;35.61;98998.31;6153042;23;20021;-94
2023/07/10 14:29:59;;;;;;;9.93;5.28;;;;;;;35.56;35.44;98996.53;6153797;22;20096;-96
2023/07/10 14:32:50;;;;;;;11.73;5.57;;;;;;;35.46;36.20;98975.78;6154800;22;20071;-91
2023/07/10 14:36:08;;;;;;;;;;;;;;;;;;;;;
2023/07/10 14:45:47;;;;;;;13.00;5.18;;;;;;;34.88;35.05;98962.78;6036159;23;20445;-94
2023/07/10 14:48:27;;;;;;;12.27;5.25;;;;;;;35.02;35.40;98966.53;6013229;23;20019;-92
2023/07/10 14:51:05;;;;;;;11.68;5.70;;;;;;;35.11;36.18;98958.97;6011845;23;20161;-93
2023/07/10 14:53:40;;;;;;;10.90;5.55;;;;;;;35.33;35.55;98952.47;6012713;23;20019;-93
2023/07/10 14:56:13;;;;;;;9.10;4.85;;;;;;;35.29;32.22;98964.13;6012974;23;20449;-93
2023/07/10 14:58:50;;;;;;;10.25;4.30;;;;;;;35.73;30.60;98980.53;6035708;23;20062;-94
2023/07/10 15:01:50;;;;;;;8.10;4.63;;;;;;;35.61;29.36;98953.59;6012289;23;20458;-94